createdAt,value
2017-06-17T00:00:28.055Z,1019.50
2017-06-17T00:01:28.698Z,1019.58
2017-06-17T00:02:29.339Z,1019.62
2017-06-17T00:03:29.980Z,1019.57
2017-06-17T00:04:30.633Z,1019.57
2017-06-17T00:05:31.269Z,1019.61
2017-06-17T00:06:31.911Z,1019.55
2017-06-17T00:07:32.555Z,1019.64
2017-06-17T00:08:33.195Z,1019.54
2017-06-17T00:09:33.837Z,1019.56
2017-06-17T00:10:34.478Z,1019.52
2017-06-17T00:11:35.124Z,1019.51
2017-06-17T00:12:35.767Z,1019.45
2017-06-17T00:13:36.410Z,1019.48
2017-06-17T00:14:37.053Z,1019.44
2017-06-17T00:15:37.696Z,1019.42
2017-06-17T00:16:38.540Z,1019.48
2017-06-17T00:17:39.183Z,1019.41
2017-06-17T00:18:39.826Z,1019.45
2017-06-17T00:19:40.470Z,1019.42
2017-06-17T00:20:41.110Z,1019.39
2017-06-17T00:21:41.753Z,1019.48
2017-06-17T00:22:42.397Z,1019.52
2017-06-17T00:23:43.036Z,1019.37
2017-06-17T00:24:43.680Z,1019.40
2017-06-17T00:25:44.526Z,1019.36
2017-06-17T00:26:45.167Z,1019.37
2017-06-17T00:27:45.809Z,1019.31
2017-06-17T00:28:46.450Z,1019.28
2017-06-17T00:29:47.094Z,1019.26
2017-06-17T00:30:47.739Z,1019.28
2017-06-17T00:31:48.380Z,1019.23
2017-06-17T00:32:49.022Z,1019.29
2017-06-17T00:33:49.865Z,1019.21
2017-06-17T00:34:50.508Z,1019.20
2017-06-17T00:35:51.153Z,1019.19
2017-06-17T00:36:51.794Z,1019.19
2017-06-17T00:37:52.436Z,1019.25
2017-06-17T00:38:53.081Z,1019.14
2017-06-17T00:39:53.723Z,1019.13
2017-06-17T00:40:54.366Z,1019.11
2017-06-17T00:41:55.259Z,1019.18
2017-06-17T00:42:55.902Z,1019.15
2017-06-17T00:43:56.547Z,1019.20
2017-06-17T00:44:57.190Z,1019.15
2017-06-17T00:45:57.834Z,1019.16
2017-06-17T00:46:58.475Z,1019.12
2017-06-17T00:47:59.118Z,1019.15
2017-06-17T00:48:59.761Z,1019.22
2017-06-17T00:50:00.556Z,1019.16
2017-06-17T00:51:01.200Z,1019.15
2017-06-17T00:52:01.842Z,1019.21
2017-06-17T00:53:02.485Z,1019.24
2017-06-17T00:54:03.130Z,1019.28
2017-06-17T00:55:03.775Z,1019.22
2017-06-17T00:56:04.420Z,1019.24
2017-06-17T00:57:05.060Z,1019.23
2017-06-17T00:58:05.701Z,1019.16
2017-06-17T00:59:06.543Z,1019.22
2017-06-17T01:00:07.190Z,1019.21
2017-06-17T01:01:07.834Z,1019.26
2017-06-17T01:02:08.477Z,1019.20
2017-06-17T01:03:09.118Z,1019.30
2017-06-17T01:04:09.762Z,1019.27
2017-06-17T01:05:10.403Z,1019.30
2017-06-17T01:06:11.047Z,1019.24
2017-06-17T01:07:11.991Z,1019.24
2017-06-17T01:08:12.633Z,1019.24
2017-06-17T01:09:13.277Z,1019.22
2017-06-17T01:10:13.920Z,1019.22
2017-06-17T01:11:14.560Z,1019.27
2017-06-17T01:12:15.205Z,1019.21
2017-06-17T01:13:15.847Z,1019.21
2017-06-17T01:14:16.487Z,1019.15
2017-06-17T01:15:17.335Z,1019.17
2017-06-17T01:16:17.973Z,1019.17
2017-06-17T01:17:18.615Z,1019.10
2017-06-17T01:18:19.258Z,1019.10
2017-06-17T01:19:19.900Z,1019.12
2017-06-17T01:20:20.545Z,1019.01
2017-06-17T01:21:21.189Z,1019.08
2017-06-17T01:22:21.830Z,1019.08
2017-06-17T01:23:22.672Z,1019.05
2017-06-17T01:24:23.315Z,1019.11
2017-06-17T01:25:23.960Z,1019.16
2017-06-17T01:26:24.602Z,1019.20
2017-06-17T01:27:25.243Z,1019.15
2017-06-17T01:28:25.886Z,1019.19
2017-06-17T01:29:26.527Z,1019.25
2017-06-17T01:30:27.171Z,1019.25
2017-06-17T01:31:28.014Z,1019.27
2017-06-17T01:32:28.654Z,1019.28
2017-06-17T01:33:29.296Z,1019.30
2017-06-17T01:34:29.938Z,1019.31
2017-06-17T01:35:30.582Z,1019.25
2017-06-17T01:36:31.223Z,1019.20
2017-06-17T01:37:31.866Z,1019.28
2017-06-17T01:38:32.519Z,1019.27
2017-06-17T01:39:33.162Z,1019.30
2017-06-17T01:40:34.006Z,1019.29
2017-06-17T01:41:34.649Z,1019.23
2017-06-17T01:42:35.289Z,1019.22
2017-06-17T01:43:35.935Z,1019.22
2017-06-17T01:44:36.579Z,1019.18
2017-06-17T01:45:37.224Z,1019.19
2017-06-17T01:46:37.866Z,1019.23
2017-06-17T01:47:38.509Z,1019.12
2017-06-17T01:48:39.402Z,1019.06
2017-06-17T01:49:40.043Z,1019.17
2017-06-17T01:50:40.688Z,1019.17
2017-06-17T01:51:41.329Z,1019.17
2017-06-17T01:52:41.972Z,1019.12
2017-06-17T01:53:42.616Z,1019.07
2017-06-17T01:54:43.258Z,1019.05
2017-06-17T01:55:43.900Z,1019.00
2017-06-17T01:56:44.742Z,1018.98
2017-06-17T01:57:45.388Z,1018.98
2017-06-17T01:58:46.029Z,1018.91
2017-06-17T01:59:46.669Z,1018.97
2017-06-17T02:00:47.317Z,1018.93
2017-06-17T02:01:47.955Z,1019.07
2017-06-17T02:02:48.596Z,1019.04
2017-06-17T02:03:49.262Z,1019.02
2017-06-17T02:04:50.033Z,1019.06
2017-06-17T02:05:50.677Z,1019.01
2017-06-17T02:06:51.321Z,1019.11
2017-06-17T02:07:51.962Z,1019.04
2017-06-17T02:08:52.605Z,1019.04
2017-06-17T02:09:53.250Z,1018.96
2017-06-17T02:10:53.895Z,1019.08
2017-06-17T02:11:54.534Z,1018.94
2017-06-17T02:12:55.178Z,1018.99
2017-06-17T02:13:56.020Z,1018.97
2017-06-17T02:14:56.664Z,1018.96
2017-06-17T02:15:57.309Z,1018.91
2017-06-17T02:16:57.952Z,1018.94
2017-06-17T02:17:58.591Z,1018.90
2017-06-17T02:18:59.235Z,1018.89
2017-06-17T02:19:59.879Z,1018.85
2017-06-17T02:21:00.520Z,1018.94
2017-06-17T02:22:01.364Z,1018.94
2017-06-17T02:23:02.006Z,1018.91
2017-06-17T02:24:02.650Z,1018.86
2017-06-17T02:25:03.293Z,1018.96
2017-06-17T02:26:03.936Z,1018.84
2017-06-17T02:27:04.579Z,1018.92
2017-06-17T02:28:05.224Z,1018.91
2017-06-17T02:29:05.867Z,1018.92
2017-06-17T02:30:06.710Z,1018.94
2017-06-17T02:31:07.352Z,1018.88
2017-06-17T02:32:07.995Z,1018.88
2017-06-17T02:33:08.640Z,1018.81
2017-06-17T02:34:09.285Z,1018.78
2017-06-17T02:35:09.929Z,1018.82
2017-06-17T02:36:10.567Z,1018.88
2017-06-17T02:37:11.209Z,1018.85
2017-06-17T02:38:12.003Z,1018.80
2017-06-17T02:39:12.644Z,1018.85
2017-06-17T02:40:13.285Z,1018.94
2017-06-17T02:41:13.927Z,1018.89
2017-06-17T02:42:14.571Z,1018.88
2017-06-17T02:43:15.212Z,1018.91
2017-06-17T02:44:15.855Z,1019.01
2017-06-17T02:45:16.498Z,1018.91
2017-06-17T02:46:17.340Z,1018.93
2017-06-17T02:47:17.983Z,1018.93
2017-06-17T02:48:18.628Z,1018.92
2017-06-17T02:49:19.269Z,1018.91
2017-06-17T02:50:19.915Z,1018.89
2017-06-17T02:51:20.555Z,1018.93
2017-06-17T02:52:21.197Z,1018.85
2017-06-17T02:53:21.840Z,1018.89
2017-06-17T02:54:22.505Z,1018.94
2017-06-17T02:55:23.326Z,1018.87
2017-06-17T02:56:23.967Z,1018.89
2017-06-17T02:57:24.609Z,1018.84
2017-06-17T02:58:25.252Z,1018.82
2017-06-17T02:59:25.892Z,1018.72
2017-06-17T03:00:26.536Z,1018.76
2017-06-17T03:01:27.178Z,1018.65
2017-06-17T03:02:27.824Z,1018.70
2017-06-17T03:03:28.617Z,1018.74
2017-06-17T03:04:29.261Z,1018.69
2017-06-17T03:05:29.904Z,1018.68
2017-06-17T03:06:30.546Z,1018.77
2017-06-17T03:07:31.189Z,1018.71
2017-06-17T03:08:31.830Z,1018.74
2017-06-17T03:09:32.473Z,1018.75
2017-06-17T03:10:33.114Z,1018.72
2017-06-17T03:11:33.958Z,1018.68
2017-06-17T03:12:34.601Z,1018.62
2017-06-17T03:13:35.244Z,1018.62
2017-06-17T03:14:35.888Z,1018.64
2017-06-17T03:15:36.527Z,1018.68
2017-06-17T03:16:37.172Z,1018.60
2017-06-17T03:17:37.811Z,1018.61
2017-06-17T03:18:38.456Z,1018.61
2017-06-17T03:19:39.301Z,1018.59
2017-06-17T03:20:39.943Z,1018.56
2017-06-17T03:21:40.587Z,1018.61
2017-06-17T03:22:41.230Z,1018.64
2017-06-17T03:23:41.871Z,1018.61
2017-06-17T03:24:42.514Z,1018.65
2017-06-17T03:25:43.158Z,1018.59
2017-06-17T03:26:43.802Z,1018.59
2017-06-17T03:27:44.441Z,1018.60
2017-06-17T03:28:45.286Z,1018.64
2017-06-17T03:29:45.927Z,1018.51
2017-06-17T03:30:46.572Z,1018.46
2017-06-17T03:31:47.214Z,1018.51
2017-06-17T03:32:47.804Z,1018.45
2017-06-17T03:33:48.446Z,1018.44
2017-06-17T03:34:49.087Z,1018.45
2017-06-17T03:35:49.684Z,1018.41
2017-06-17T03:36:50.524Z,1018.38
2017-06-17T03:37:51.165Z,1018.37
2017-06-17T03:38:51.807Z,1018.30
2017-06-17T03:39:52.450Z,1018.34
2017-06-17T03:40:53.097Z,1018.31
2017-06-17T03:41:53.736Z,1018.30
2017-06-17T03:42:54.376Z,1018.33
2017-06-17T03:43:55.019Z,1018.31
2017-06-17T03:44:55.860Z,1018.31
2017-06-17T03:45:56.505Z,1018.25
2017-06-17T03:46:57.206Z,1018.31
2017-06-17T03:47:57.850Z,1018.32
2017-06-17T03:48:58.495Z,1018.27
2017-06-17T03:49:59.137Z,1018.23
2017-06-17T03:50:59.777Z,1018.28
2017-06-17T03:52:00.420Z,1018.26
2017-06-17T03:53:01.264Z,1018.24
2017-06-17T03:54:01.907Z,1018.19
2017-06-17T03:55:02.548Z,1018.25
2017-06-17T03:56:03.190Z,1018.23
2017-06-17T03:57:03.832Z,1018.16
2017-06-17T03:58:04.474Z,1018.22
2017-06-17T03:59:05.118Z,1018.16
2017-06-17T04:00:05.759Z,1018.15
2017-06-17T04:01:06.603Z,1018.20
2017-06-17T04:02:07.244Z,1018.15
2017-06-17T04:03:07.889Z,1018.18
2017-06-17T04:04:08.531Z,1018.25
2017-06-17T04:05:09.175Z,1018.24
2017-06-17T04:06:09.820Z,1018.20
2017-06-17T04:07:10.463Z,1018.19
2017-06-17T04:08:11.105Z,1018.19
2017-06-17T04:09:11.747Z,1018.18
2017-06-17T04:10:12.540Z,1018.13
2017-06-17T04:11:13.188Z,1018.15
2017-06-17T04:12:13.827Z,1018.16
2017-06-17T04:13:14.469Z,1018.11
2017-06-17T04:14:15.110Z,1018.09
2017-06-17T04:15:15.754Z,1018.07
2017-06-17T04:16:16.394Z,1018.07
2017-06-17T04:17:17.036Z,1018.07
2017-06-17T04:18:17.879Z,1018.07
2017-06-17T04:19:18.522Z,1018.05
2017-06-17T04:20:19.165Z,1018.05
2017-06-17T04:21:19.806Z,1018.11
2017-06-17T04:22:20.451Z,1018.07
2017-06-17T04:23:21.092Z,1018.11
2017-06-17T04:24:21.735Z,1018.07
2017-06-17T04:25:22.376Z,1018.02
2017-06-17T04:26:23.220Z,1017.99
2017-06-17T04:27:23.862Z,1018.05
2017-06-17T04:28:24.506Z,1018.03
2017-06-17T04:29:25.148Z,1017.99
2017-06-17T04:30:25.791Z,1018.07
2017-06-17T04:31:26.432Z,1018.02
2017-06-17T04:32:27.075Z,1018.06
2017-06-17T04:33:27.718Z,1018.12
2017-06-17T04:34:28.511Z,1018.08
2017-06-17T04:35:29.153Z,1018.07
2017-06-17T04:36:29.796Z,1018.17
2017-06-17T04:37:30.437Z,1018.18
2017-06-17T04:38:31.080Z,1018.25
2017-06-17T04:39:31.721Z,1018.18
2017-06-17T04:40:32.367Z,1018.18
2017-06-17T04:41:33.010Z,1018.20
2017-06-17T04:42:33.649Z,1018.17
2017-06-17T04:43:34.491Z,1018.14
2017-06-17T04:44:35.134Z,1018.14
2017-06-17T04:45:35.777Z,1018.14
2017-06-17T04:46:36.420Z,1018.30
2017-06-17T04:47:37.062Z,1018.13
2017-06-17T04:48:37.707Z,1018.17
2017-06-17T04:49:38.346Z,1018.16
2017-06-17T04:50:38.988Z,1018.07
2017-06-17T04:51:39.981Z,1018.13
2017-06-17T04:52:40.623Z,1018.06
2017-06-17T04:53:41.271Z,1018.15
2017-06-17T04:54:41.910Z,1018.06
2017-06-17T04:55:42.553Z,1018.05
2017-06-17T04:56:43.194Z,1018.06
2017-06-17T04:57:43.837Z,1018.06
2017-06-17T04:58:44.478Z,1018.15
2017-06-17T04:59:45.321Z,1018.08
2017-06-17T05:00:45.965Z,1018.07
2017-06-17T05:01:46.608Z,1018.08
2017-06-17T05:02:47.251Z,1018.06
2017-06-17T05:03:47.899Z,1018.13
2017-06-17T05:04:48.538Z,1018.12
2017-06-17T05:05:49.237Z,1018.16
2017-06-17T05:06:49.881Z,1018.11
2017-06-17T05:07:50.923Z,1018.05
2017-06-17T05:08:51.568Z,1018.10
2017-06-17T05:09:52.207Z,1018.14
2017-06-17T05:10:52.851Z,1018.05
2017-06-17T05:11:53.493Z,1018.08
2017-06-17T05:12:54.135Z,1018.13
2017-06-17T05:13:54.780Z,1018.08
2017-06-17T05:14:55.422Z,1018.10
2017-06-17T05:15:56.262Z,1018.10
2017-06-17T05:16:56.906Z,1018.10
2017-06-17T05:17:57.549Z,1018.01
2017-06-17T05:18:58.192Z,1018.10
2017-06-17T05:19:58.834Z,1018.11
2017-06-17T05:20:59.475Z,1018.12
2017-06-17T05:22:00.118Z,1018.15
2017-06-17T05:23:00.760Z,1018.05
2017-06-17T05:24:01.402Z,1018.07
2017-06-17T05:25:02.393Z,1018.07
2017-06-17T05:26:03.034Z,1018.04
2017-06-17T05:27:03.679Z,1017.92
2017-06-17T05:28:04.320Z,1018.00
2017-06-17T05:29:04.964Z,1017.94
2017-06-17T05:30:05.605Z,1017.91
2017-06-17T05:31:06.248Z,1018.03
2017-06-17T05:32:06.892Z,1017.97
2017-06-17T05:33:07.883Z,1017.89
2017-06-17T05:34:08.525Z,1017.91
2017-06-17T05:35:09.169Z,1017.89
2017-06-17T05:36:09.813Z,1017.89
2017-06-17T05:37:10.456Z,1017.93
2017-06-17T05:38:11.103Z,1017.97
2017-06-17T05:39:11.799Z,1017.89
2017-06-17T05:40:12.442Z,1017.91
2017-06-17T05:41:13.337Z,1017.88
2017-06-17T05:42:13.980Z,1017.96
2017-06-17T05:43:14.622Z,1017.90
2017-06-17T05:44:15.267Z,1017.91
2017-06-17T05:45:15.908Z,1017.79
2017-06-17T05:46:16.552Z,1017.90
2017-06-17T05:47:17.193Z,1017.91
2017-06-17T05:48:17.836Z,1017.88
2017-06-17T05:49:18.680Z,1017.90
2017-06-17T05:50:19.322Z,1017.90
2017-06-17T05:51:19.966Z,1017.93
2017-06-17T05:52:20.607Z,1017.84
2017-06-17T05:53:21.251Z,1017.94
2017-06-17T05:54:21.895Z,1017.94
2017-06-17T05:55:22.537Z,1017.93
2017-06-17T05:56:23.180Z,1017.88
2017-06-17T05:57:23.821Z,1017.89
2017-06-17T05:58:24.663Z,1017.93
2017-06-17T05:59:25.307Z,1017.97
2017-06-17T06:00:25.950Z,1017.93
2017-06-17T06:01:26.590Z,1017.91
2017-06-17T06:02:27.232Z,1017.95
2017-06-17T06:03:27.876Z,1017.94
2017-06-17T06:04:28.517Z,1017.96
2017-06-17T06:05:29.159Z,1017.97
2017-06-17T06:06:29.954Z,1017.97
2017-06-17T06:07:30.598Z,1018.00
2017-06-17T06:08:31.238Z,1017.95
2017-06-17T06:09:31.881Z,1017.94
2017-06-17T06:10:32.524Z,1018.05
2017-06-17T06:11:33.166Z,1018.01
2017-06-17T06:12:33.809Z,1018.06
2017-06-17T06:13:34.449Z,1018.00
2017-06-17T06:14:35.291Z,1018.07
2017-06-17T06:15:35.935Z,1018.10
2017-06-17T06:16:36.577Z,1018.10
2017-06-17T06:17:37.220Z,1018.12
2017-06-17T06:18:37.863Z,1018.20
2017-06-17T06:19:38.503Z,1018.15
2017-06-17T06:20:39.146Z,1018.12
2017-06-17T06:21:39.790Z,1018.12
2017-06-17T06:22:40.585Z,1018.15
2017-06-17T06:23:41.227Z,1018.13
2017-06-17T06:24:41.872Z,1018.14
2017-06-17T06:25:42.515Z,1018.11
2017-06-17T06:26:43.107Z,1018.10
2017-06-17T06:27:43.751Z,1018.17
2017-06-17T06:28:44.391Z,1018.24
2017-06-17T06:29:45.033Z,1018.21
2017-06-17T06:30:45.925Z,1018.24
2017-06-17T06:31:46.572Z,1018.21
2017-06-17T06:32:47.215Z,1018.24
2017-06-17T06:33:47.857Z,1018.24
2017-06-17T06:34:48.498Z,1018.27
2017-06-17T06:35:49.139Z,1018.24
2017-06-17T06:36:49.783Z,1018.25
2017-06-17T06:37:50.434Z,1018.28
2017-06-17T06:38:51.076Z,1018.24
2017-06-17T06:39:52.069Z,1018.30
2017-06-17T06:40:52.711Z,1018.30
2017-06-17T06:41:53.354Z,1018.30
2017-06-17T06:42:53.998Z,1018.30
2017-06-17T06:43:54.640Z,1018.38
2017-06-17T06:44:55.281Z,1018.49
2017-06-17T06:45:55.929Z,1018.42
2017-06-17T06:46:56.625Z,1018.44
2017-06-17T06:47:57.469Z,1018.54
2017-06-17T06:48:58.112Z,1018.52
2017-06-17T06:49:58.754Z,1018.51
2017-06-17T06:50:59.396Z,1018.46
2017-06-17T06:52:00.041Z,1018.54
2017-06-17T06:53:00.686Z,1018.47
2017-06-17T06:54:01.325Z,1018.40
2017-06-17T06:55:01.966Z,1018.40
2017-06-17T06:56:02.810Z,1018.34
2017-06-17T06:57:03.455Z,1018.34
2017-06-17T06:58:04.098Z,1018.37
2017-06-17T06:59:04.746Z,1018.38
2017-06-17T07:00:05.441Z,1018.38
2017-06-17T07:01:06.082Z,1018.41
2017-06-17T07:02:06.723Z,1018.41
2017-06-17T07:03:07.366Z,1018.46
2017-06-17T07:04:08.211Z,1018.51
2017-06-17T07:05:08.855Z,1018.59
2017-06-17T07:06:09.498Z,1018.56
2017-06-17T07:07:10.143Z,1018.64
2017-06-17T07:08:10.781Z,1018.63
2017-06-17T07:09:11.422Z,1018.70
2017-06-17T07:10:12.065Z,1018.72
2017-06-17T07:11:12.706Z,1018.74
2017-06-17T07:12:13.349Z,1018.72
2017-06-17T07:13:14.144Z,1018.72
2017-06-17T07:14:14.787Z,1018.75
2017-06-17T07:15:15.430Z,1018.70
2017-06-17T07:16:16.071Z,1018.71
2017-06-17T07:17:16.721Z,1018.78
2017-06-17T07:18:17.415Z,1018.75
2017-06-17T07:19:18.059Z,1018.74
2017-06-17T07:20:18.704Z,1018.75
2017-06-17T07:21:19.546Z,1018.84
2017-06-17T07:22:20.192Z,1018.79
2017-06-17T07:23:20.830Z,1018.80
2017-06-17T07:24:21.475Z,1018.78
2017-06-17T07:25:22.117Z,1018.77
2017-06-17T07:26:22.760Z,1018.75
2017-06-17T07:27:23.402Z,1018.89
2017-06-17T07:28:24.043Z,1018.81
2017-06-17T07:29:24.884Z,1018.81
2017-06-17T07:30:25.537Z,1018.85
2017-06-17T07:31:26.232Z,1018.78
2017-06-17T07:32:26.872Z,1018.78
2017-06-17T07:33:27.517Z,1018.71
2017-06-17T07:34:28.163Z,1018.68
2017-06-17T07:35:28.804Z,1018.75
2017-06-17T07:36:29.449Z,1018.68
2017-06-17T07:37:30.389Z,1018.71
2017-06-17T07:38:31.031Z,1018.77
2017-06-17T07:39:31.677Z,1018.68
2017-06-17T07:40:32.316Z,1018.68
2017-06-17T07:41:32.961Z,1018.66
2017-06-17T07:42:33.604Z,1018.70
2017-06-17T07:43:34.248Z,1018.64
2017-06-17T07:44:34.888Z,1018.71
2017-06-17T07:45:35.729Z,1018.74
2017-06-17T07:46:36.371Z,1018.71
2017-06-17T07:47:37.016Z,1018.71
2017-06-17T07:48:37.659Z,1018.76
2017-06-17T07:49:38.300Z,1018.79
2017-06-17T07:50:38.946Z,1018.74
2017-06-17T07:51:39.588Z,1018.74
2017-06-17T07:52:40.229Z,1018.73
2017-06-17T07:53:40.870Z,1018.71
2017-06-17T07:54:41.664Z,1018.79
2017-06-17T07:55:42.310Z,1018.81
2017-06-17T07:56:42.952Z,1018.86
2017-06-17T07:57:43.595Z,1018.86
2017-06-17T07:58:44.239Z,1018.84
2017-06-17T07:59:44.886Z,1018.84
2017-06-17T08:00:45.529Z,1018.81
2017-06-17T08:01:46.174Z,1018.93
2017-06-17T08:02:47.017Z,1018.91
2017-06-17T08:03:47.660Z,1018.85
2017-06-17T08:04:48.302Z,1018.86
2017-06-17T08:05:48.945Z,1018.81
2017-06-17T08:06:49.590Z,1018.86
2017-06-17T08:07:50.234Z,1018.81
2017-06-17T08:08:50.875Z,1018.80
2017-06-17T08:09:51.517Z,1018.76
2017-06-17T08:10:52.459Z,1018.71
2017-06-17T08:11:53.101Z,1018.70
2017-06-17T08:12:53.744Z,1018.68
2017-06-17T08:13:54.389Z,1018.70
2017-06-17T08:14:55.033Z,1018.72
2017-06-17T08:15:55.678Z,1018.72
2017-06-17T08:16:56.317Z,1018.67
2017-06-17T08:17:56.958Z,1018.73
2017-06-17T08:18:57.802Z,1018.76
2017-06-17T08:19:58.448Z,1018.77
2017-06-17T08:20:59.090Z,1018.82
2017-06-17T08:21:59.732Z,1018.82
2017-06-17T08:23:00.377Z,1018.82
2017-06-17T08:24:01.019Z,1018.80
2017-06-17T08:25:01.666Z,1018.76
2017-06-17T08:26:02.307Z,1018.75
2017-06-17T08:27:02.950Z,1018.78
2017-06-17T08:28:03.746Z,1018.76
2017-06-17T08:29:04.388Z,1018.80
2017-06-17T08:30:05.032Z,1018.71
2017-06-17T08:31:05.678Z,1018.70
2017-06-17T08:32:06.321Z,1018.74
2017-06-17T08:33:06.963Z,1018.71
2017-06-17T08:34:07.612Z,1018.74
2017-06-17T08:35:08.251Z,1018.78
2017-06-17T08:36:09.094Z,1018.78
2017-06-17T08:37:09.737Z,1018.74
2017-06-17T08:38:10.379Z,1018.79
2017-06-17T08:39:11.026Z,1018.74
2017-06-17T08:40:11.671Z,1018.74
2017-06-17T08:41:12.314Z,1018.72
2017-06-17T08:42:12.962Z,1018.69
2017-06-17T08:43:13.603Z,1018.69
2017-06-17T08:44:14.395Z,1018.66
2017-06-17T08:45:15.042Z,1018.80
2017-06-17T08:46:15.689Z,1018.73
2017-06-17T08:47:16.391Z,1018.75
2017-06-17T08:48:17.032Z,1018.72
2017-06-17T08:49:17.680Z,1018.80
2017-06-17T08:50:18.324Z,1018.75
2017-06-17T08:51:18.970Z,1018.85
2017-06-17T08:52:19.812Z,1018.88
2017-06-17T08:53:20.459Z,1018.81
2017-06-17T08:54:21.101Z,1018.86
2017-06-17T08:55:21.742Z,1018.88
2017-06-17T08:56:22.387Z,1018.86
2017-06-17T08:57:23.033Z,1018.92
2017-06-17T08:58:23.680Z,1018.87
2017-06-17T08:59:24.320Z,1018.82
2017-06-17T09:00:25.262Z,1018.88
2017-06-17T09:01:25.905Z,1018.84
2017-06-17T09:02:26.551Z,1018.91
2017-06-17T09:03:27.195Z,1018.80
2017-06-17T09:04:27.840Z,1018.82
2017-06-17T09:05:28.482Z,1018.83
2017-06-17T09:06:29.126Z,1018.86
2017-06-17T09:07:29.771Z,1018.90
2017-06-17T09:08:30.416Z,1018.89
2017-06-17T09:09:31.259Z,1018.93
2017-06-17T09:10:31.902Z,1018.94
2017-06-17T09:11:32.545Z,1018.90
2017-06-17T09:12:33.189Z,1018.85
2017-06-17T09:13:33.833Z,1018.80
2017-06-17T09:14:34.478Z,1018.82
2017-06-17T09:15:35.121Z,1018.87
2017-06-17T09:16:35.766Z,1018.81
2017-06-17T09:17:36.909Z,1018.83
2017-06-17T09:18:37.557Z,1018.90
2017-06-17T09:19:38.256Z,1018.86
2017-06-17T09:20:38.897Z,1018.82
2017-06-17T09:21:39.544Z,1018.85
2017-06-17T09:22:40.188Z,1018.88
2017-06-17T09:23:40.833Z,1018.94
2017-06-17T09:24:41.480Z,1018.89
2017-06-17T09:25:42.324Z,1018.83
2017-06-17T09:26:42.969Z,1018.80
2017-06-17T09:27:43.612Z,1018.88
2017-06-17T09:28:44.256Z,1018.87
2017-06-17T09:29:44.901Z,1018.82
2017-06-17T09:30:45.544Z,1018.86
2017-06-17T09:31:46.188Z,1018.87
2017-06-17T09:32:46.833Z,1018.82
2017-06-17T09:33:47.675Z,1018.81
2017-06-17T09:34:48.319Z,1018.72
2017-06-17T09:35:48.965Z,1018.78
2017-06-17T09:36:49.609Z,1018.82
2017-06-17T09:37:50.255Z,1018.77
2017-06-17T09:38:50.898Z,1018.76
2017-06-17T09:39:51.542Z,1018.75
2017-06-17T09:40:52.187Z,1018.72
2017-06-17T09:41:52.828Z,1018.71
2017-06-17T09:42:53.671Z,1018.71
2017-06-17T09:43:54.319Z,1018.66
2017-06-17T09:44:54.963Z,1018.72
2017-06-17T09:45:55.607Z,1018.72
2017-06-17T09:46:56.250Z,1018.66
2017-06-17T09:47:56.892Z,1018.73
2017-06-17T09:48:57.535Z,1018.60
2017-06-17T09:49:58.181Z,1018.58
2017-06-17T09:50:58.972Z,1018.64
2017-06-17T09:51:59.620Z,1018.71
2017-06-17T09:53:00.262Z,1018.69
2017-06-17T09:54:00.911Z,1018.68
2017-06-17T09:55:01.551Z,1018.70
2017-06-17T09:56:02.197Z,1018.66
2017-06-17T09:57:02.837Z,1018.62
2017-06-17T09:58:03.483Z,1018.70
2017-06-17T09:59:04.179Z,1018.66
2017-06-17T10:00:04.823Z,1018.62
2017-06-17T10:01:05.469Z,1018.64
2017-06-17T10:02:06.116Z,1018.65
2017-06-17T10:03:06.759Z,1018.60
2017-06-17T10:04:07.352Z,1018.65
2017-06-17T10:05:07.996Z,1018.71
2017-06-17T10:06:08.638Z,1018.71
2017-06-17T10:07:09.482Z,1018.69
2017-06-17T10:08:10.125Z,1018.63
2017-06-17T10:09:10.767Z,1018.58
2017-06-17T10:10:11.413Z,1018.65
2017-06-17T10:11:12.055Z,1018.51
2017-06-17T10:12:12.699Z,1018.57
2017-06-17T10:13:13.343Z,1018.58
2017-06-17T10:14:13.989Z,1018.63
2017-06-17T10:15:14.833Z,1018.61
2017-06-17T10:16:15.477Z,1018.52
2017-06-17T10:17:16.120Z,1018.61
2017-06-17T10:18:16.765Z,1018.63
2017-06-17T10:19:17.412Z,1018.59
2017-06-17T10:20:18.053Z,1018.51
2017-06-17T10:21:18.701Z,1018.52
2017-06-17T10:22:19.346Z,1018.53
2017-06-17T10:23:19.990Z,1018.53
2017-06-17T10:24:20.783Z,1018.45
2017-06-17T10:25:21.429Z,1018.50
2017-06-17T10:26:22.077Z,1018.47
2017-06-17T10:27:22.720Z,1018.52
2017-06-17T10:28:23.366Z,1018.51
2017-06-17T10:29:24.009Z,1018.52
2017-06-17T10:30:24.652Z,1018.50
2017-06-17T10:31:25.297Z,1018.54
2017-06-17T10:32:26.140Z,1018.48
2017-06-17T10:33:26.786Z,1018.58
2017-06-17T10:34:27.430Z,1018.52
2017-06-17T10:35:28.073Z,1018.56
2017-06-17T10:36:28.716Z,1018.63
2017-06-17T10:37:29.358Z,1018.58
2017-06-17T10:38:30.002Z,1018.62
2017-06-17T10:39:30.645Z,1018.57
2017-06-17T10:40:31.488Z,1018.64
2017-06-17T10:41:32.132Z,1018.61
2017-06-17T10:42:32.778Z,1018.60
2017-06-17T10:43:33.420Z,1018.64
2017-06-17T10:44:34.065Z,1018.57
2017-06-17T10:45:34.707Z,1018.67
2017-06-17T10:46:35.351Z,1018.63
2017-06-17T10:47:36.000Z,1018.55
2017-06-17T10:48:36.844Z,1018.67
2017-06-17T10:49:37.490Z,1018.61
2017-06-17T10:50:38.133Z,1018.66
2017-06-17T10:51:38.779Z,1018.57
2017-06-17T10:52:39.420Z,1018.59
2017-06-17T10:53:40.067Z,1018.50
2017-06-17T10:54:40.710Z,1018.50
2017-06-17T10:55:41.355Z,1018.42
2017-06-17T10:56:42.001Z,1018.46
2017-06-17T10:57:42.843Z,1018.36
2017-06-17T10:58:43.489Z,1018.39
2017-06-17T10:59:44.134Z,1018.48
2017-06-17T11:00:44.780Z,1018.46
2017-06-17T11:01:45.423Z,1018.51
2017-06-17T11:02:46.068Z,1018.44
2017-06-17T11:03:46.713Z,1018.51
2017-06-17T11:04:47.358Z,1018.45
2017-06-17T11:05:48.198Z,1018.47
2017-06-17T11:06:48.843Z,1018.48
2017-06-17T11:07:49.487Z,1018.44
2017-06-17T11:08:50.134Z,1018.45
2017-06-17T11:09:50.778Z,1018.53
2017-06-17T11:10:51.423Z,1018.47
2017-06-17T11:11:52.065Z,1018.44
2017-06-17T11:12:52.710Z,1018.41
2017-06-17T11:13:53.354Z,1018.45
2017-06-17T11:14:53.996Z,1018.47
2017-06-17T11:15:54.642Z,1018.39
2017-06-17T11:16:55.288Z,1018.32
2017-06-17T11:17:55.932Z,1018.36
2017-06-17T11:18:56.579Z,1018.33
2017-06-17T11:19:57.220Z,1018.33
2017-06-17T11:20:57.865Z,1018.32
2017-06-17T11:21:58.707Z,1018.38
2017-06-17T11:22:59.356Z,1018.27
2017-06-17T11:24:00.000Z,1018.35
2017-06-17T11:25:00.647Z,1018.34
2017-06-17T11:26:01.292Z,1018.34
2017-06-17T11:27:01.936Z,1018.34
2017-06-17T11:28:02.580Z,1018.35
2017-06-17T11:29:03.224Z,1018.33
2017-06-17T11:30:04.019Z,1018.35
2017-06-17T11:31:04.667Z,1018.36
2017-06-17T11:32:05.308Z,1018.31
2017-06-17T11:33:05.951Z,1018.44
2017-06-17T11:34:06.596Z,1018.41
2017-06-17T11:35:07.241Z,1018.38
2017-06-17T11:36:07.887Z,1018.42
2017-06-17T11:37:08.527Z,1018.33
2017-06-17T11:38:09.174Z,1018.33
2017-06-17T11:39:10.068Z,1018.38
2017-06-17T11:40:10.713Z,1018.36
2017-06-17T11:41:11.358Z,1018.39
2017-06-17T11:42:11.999Z,1018.31
2017-06-17T11:43:12.645Z,1018.45
2017-06-17T11:44:13.286Z,1018.35
2017-06-17T11:45:13.932Z,1018.33
2017-06-17T11:46:14.528Z,1018.36
2017-06-17T11:47:15.422Z,1018.29
2017-06-17T11:48:16.065Z,1018.26
2017-06-17T11:49:16.708Z,1018.28
2017-06-17T11:50:17.354Z,1018.25
2017-06-17T11:51:17.997Z,1018.24
2017-06-17T11:52:18.644Z,1018.25
2017-06-17T11:53:19.289Z,1018.25
2017-06-17T11:54:19.933Z,1018.20
2017-06-17T11:55:20.826Z,1018.21
2017-06-17T11:56:21.472Z,1018.19
2017-06-17T11:57:22.115Z,1018.16
2017-06-17T11:58:22.761Z,1018.22
2017-06-17T11:59:23.406Z,1018.24
2017-06-17T12:00:24.050Z,1018.10
2017-06-17T12:01:24.697Z,1018.15
2017-06-17T12:02:25.344Z,1018.18
2017-06-17T12:03:26.139Z,1018.19
2017-06-17T12:04:26.785Z,1018.15
2017-06-17T12:05:27.426Z,1018.09
2017-06-17T12:06:28.130Z,1018.11
2017-06-17T12:07:28.772Z,1018.04
2017-06-17T12:08:29.416Z,1018.11
2017-06-17T12:09:30.061Z,1018.15
2017-06-17T12:10:30.712Z,1018.11
2017-06-17T12:11:31.353Z,1018.02
2017-06-17T12:12:32.295Z,1018.06
2017-06-17T12:13:32.938Z,1018.06